Time;durP1;ratioP1;P1;durP2;ratioP2;P2;SDS_P1;SDS_P2;PMS_P1;PMS_P2;Temp;Humidity;BMP_temperature;BMP_pressure;BME280_temperature;BME280_humidity;BME280_pressure;Samples;Min_cycle;Max_cycle;Signal;HPM_P1;HPM_P2
2024/03/01 00:02:28;;;;;;;99.43;51.23;;;;;;;6.44;100.00;100136.81;1542451;83;28097;-74
2024/03/01 00:04:54;;;;;;;103.70;54.23;;;;;;;6.46;100.00;100133.58;1524568;84;22422;-74
2024/03/01 00:07:20;;;;;;;103.07;53.13;;;;;;;6.48;100.00;100128.55;1523496;84;22497;-74
2024/03/01 00:09:46;;;;;;;103.53;57.60;;;;;;;6.46;100.00;100128.33;1526968;84;21461;-74
2024/03/01 00:12:12;;;;;;;108.13;55.80;;;;;;;6.42;100.00;100128.23;1529315;84;21328;-74
2024/03/01 00:14:39;;;;;;;93.10;54.10;;;;;;;6.40;100.00;100132.78;1534944;84;21616;-74
2024/03/01 00:17:05;;;;;;;92.43;50.93;;;;;;;6.31;100.00;100116.81;1525124;84;22246;-74
2024/03/01 00:19:31;;;;;;;86.87;48.20;;;;;;;6.25;100.00;100119.13;1516894;84;21543;-74
2024/03/01 00:21:57;;;;;;;95.87;48.97;;;;;;;6.17;100.00;100114.98;1517896;84;21439;-74
2024/03/01 00:24:23;;;;;;;85.37;48.07;;;;;;;6.13;100.00;100118.80;1529078;84;22335;-73
2024/03/01 00:26:50;;;;;;;80.13;47.80;;;;;;;6.11;100.00;100117.63;1520050;84;21373;-75
2024/03/01 00:29:17;;;;;;;78.83;48.67;;;;;;;6.14;100.00;100108.66;1515882;84;22282;-74
2024/03/01 00:31:43;;;;;;;79.70;47.23;;;;;;;6.15;100.00;100107.20;1513637;84;21515;-74
2024/03/01 00:34:09;;;;;;;80.83;48.73;;;;;;;6.20;100.00;100112.92;1518574;84;21373;-74
2024/03/01 00:36:35;;;;;;;90.23;50.87;;;;;;;6.23;100.00;100111.36;1514243;84;22430;-73
2024/03/01 00:39:01;;;;;;;86.43;49.63;;;;;;;6.25;100.00;100112.06;1512334;86;21424;-73
2024/03/01 00:41:27;;;;;;;79.73;45.87;;;;;;;6.25;100.00;100118.64;1509318;84;21513;-73
2024/03/01 00:43:55;;;;;;;79.03;44.77;;;;;;;6.21;100.00;100115.89;1534981;84;21608;-73
2024/03/01 00:46:21;;;;;;;84.40;49.47;;;;;;;6.17;100.00;100113.18;1513638;84;22495;-76
2024/03/01 00:48:48;;;;;;;80.33;44.73;;;;;;;6.14;100.00;100113.92;1521027;84;21425;-76
2024/03/01 00:51:14;;;;;;;75.23;44.00;;;;;;;6.15;100.00;100113.78;1508343;84;23011;-74
2024/03/01 00:53:40;;;;;;;77.20;42.07;;;;;;;6.19;100.00;100115.70;1524370;84;21365;-75
2024/03/01 00:56:06;;;;;;;78.57;44.17;;;;;;;6.21;100.00;100115.89;1480983;86;21446;-75
2024/03/01 00:58:32;;;;;;;76.00;47.87;;;;;;;6.22;100.00;100107.55;1512932;86;21395;-75
2024/03/01 01:00:59;;;;;;;78.17;44.30;;;;;;;6.22;100.00;100103.12;1503741;86;21543;-76
2024/03/01 01:03:25;;;;;;;72.57;42.37;;;;;;;6.19;100.00;100099.93;1505723;86;21479;-76
2024/03/01 01:05:51;;;;;;;71.53;42.70;;;;;;;6.15;100.00;100086.67;1513320;86;21420;-76
2024/03/01 01:08:17;;;;;;;84.30;46.33;;;;;;;6.08;100.00;100081.10;1503437;86;21556;-76
2024/03/01 01:10:43;;;;;;;71.17;40.90;;;;;;;6.03;100.00;100078.02;1500980;86;22300;-77
2024/03/01 01:13:09;;;;;;;67.97;39.30;;;;;;;6.02;100.00;100064.54;1503234;86;21435;-76
2024/03/01 01:15:35;;;;;;;63.40;39.50;;;;;;;6.04;100.00;100071.34;1515389;86;21413;-76
2024/03/01 01:18:01;;;;;;;65.83;38.73;;;;;;;6.08;100.00;100069.28;1508379;86;21397;-76
2024/03/01 01:20:27;;;;;;;60.90;37.70;;;;;;;6.10;100.00;100076.56;1511274;86;21508;-76
2024/03/01 01:22:54;;;;;;;67.13;42.03;;;;;;;6.09;100.00;100069.14;1511569;86;22390;-77
2024/03/01 01:25:20;;;;;;;72.97;41.60;;;;;;;6.07;100.00;100072.39;1459537;86;21485;-76
2024/03/01 01:27:46;;;;;;;81.60;43.93;;;;;;;6.07;100.00;100071.08;1484535;86;21957;-76
2024/03/01 01:30:12;;;;;;;66.60;39.63;;;;;;;6.07;100.00;100065.83;1500981;86;21449;-76
2024/03/01 01:32:39;;;;;;;67.37;43.07;;;;;;;6.06;100.00;100067.25;1488231;86;21427;-74
2024/03/01 01:35:05;;;;;;;69.37;39.73;;;;;;;6.05;100.00;100068.22;1503833;86;21486;-74
2024/03/01 01:37:32;;;;;;;62.80;40.30;;;;;;;6.02;100.00;100061.91;1501392;86;21427;-75
2024/03/01 01:39:58;;;;;;;61.73;38.90;;;;;;;6.01;100.00;100065.02;1501571;86;21545;-74
2024/03/01 01:42:24;;;;;;;61.03;37.73;;;;;;;6.00;100.00;100066.45;1499687;86;22565;-75
2024/03/01 01:44:50;;;;;;;64.70;36.87;;;;;;;5.98;100.00;100056.05;1504265;86;21465;-75
2024/03/01 01:47:17;;;;;;;70.10;41.90;;;;;;;5.98;100.00;100049.48;1500440;86;21636;-74
2024/03/01 01:49:44;;;;;;;65.93;40.13;;;;;;;5.99;100.00;100050.34;1504469;86;21442;-74
2024/03/01 01:52:11;;;;;;;69.67;41.13;;;;;;;5.95;100.00;100049.75;1501252;86;22443;-76
2024/03/01 01:54:37;;;;;;;78.30;42.73;;;;;;;5.89;100.00;100054.98;1503119;86;21470;-75
2024/03/01 01:57:05;;;;;;;63.93;40.60;;;;;;;5.85;100.00;100054.91;1509925;86;21449;-74
2024/03/01 01:59:31;;;;;;;64.87;39.13;;;;;;;5.85;100.00;100053.59;1502060;86;21441;-75
2024/03/01 02:01:58;;;;;;;63.73;37.70;;;;;;;5.86;100.00;100059.19;1496368;86;22291;-75
2024/03/01 02:04:25;;;;;;;57.00;35.37;;;;;;;5.86;100.00;100050.48;1485041;87;22160;-74
2024/03/01 02:06:51;;;;;;;53.97;34.60;;;;;;;5.87;100.00;100039.03;1483505;87;21996;-75
2024/03/01 02:09:18;;;;;;;76.13;37.67;;;;;;;5.88;100.00;100040.20;1472447;87;21499;-75
2024/03/01 02:11:45;;;;;;;55.03;34.63;;;;;;;5.87;100.00;100031.98;1481264;87;21507;-78
2024/03/01 02:14:11;;;;;;;60.07;36.43;;;;;;;5.86;100.00;100030.78;1493378;87;21389;-78
2024/03/01 02:16:37;;;;;;;61.27;39.57;;;;;;;5.82;100.00;100038.58;1482500;87;21404;-77
2024/03/01 02:19:07;;;;;;;60.60;36.33;;;;;;;5.82;100.00;100039.40;1489425;87;21537;-77
2024/03/01 02:21:37;;;;;;;63.78;40.00;;;;;;;5.84;100.00;100033.55;1477856;87;21506;-77
2024/03/01 02:24:04;;;;;;;57.08;36.95;;;;;;;5.82;100.00;100021.50;1483452;87;21412;-77
2024/03/01 02:26:33;;;;;;;67.43;37.50;;;;;;;5.76;100.00;100014.96;1489332;87;22438;-77
2024/03/01 02:29:02;;;;;;;64.90;37.60;;;;;;;5.71;100.00;100022.86;1470826;87;21521;-78
2024/03/01 02:31:27;;;;;;;67.17;38.80;;;;;;;5.66;100.00;100014.87;1488266;87;21396;-78
2024/03/01 02:33:53;;;;;;;62.27;38.73;;;;;;;5.63;100.00;100015.12;1488837;87;21426;-78
2024/03/01 02:36:20;;;;;;;66.20;37.93;;;;;;;5.64;100.00;100005.48;1483821;87;21412;-78
2024/03/01 02:38:46;;;;;;;57.37;33.53;;;;;;;5.69;100.00;100003.77;1488221;87;22409;-77
2024/03/01 02:41:12;;;;;;;54.17;34.60;;;;;;;5.74;100.00;100005.05;1484434;87;21448;-76
2024/03/01 02:43:38;;;;;;;56.60;34.97;;;;;;;5.77;100.00;99997.41;1479189;87;21418;-76
2024/03/01 02:46:04;;;;;;;56.77;33.87;;;;;;;5.69;100.00;99996.72;1493587;87;21448;-76
2024/03/01 02:48:30;;;;;;;52.87;33.70;;;;;;;5.67;100.00;100006.54;1472474;87;21478;-78
2024/03/01 02:50:56;;;;;;;60.47;35.00;;;;;;;5.65;100.00;100016.33;1487766;87;22313;-77
2024/03/01 02:53:22;;;;;;;67.70;35.63;;;;;;;5.65;100.00;100008.45;1490177;87;21536;-77
2024/03/01 02:55:48;;;;;;;55.17;34.37;;;;;;;5.63;100.00;99999.37;1472938;87;21528;-77
2024/03/01 02:58:14;;;;;;;58.70;32.53;;;;;;;5.65;100.00;100002.70;1480959;87;21492;-77
2024/03/01 03:00:40;;;;;;;50.60;32.60;;;;;;;5.66;100.00;100010.10;1491290;87;22394;-78
2024/03/01 03:03:07;;;;;;;57.03;33.30;;;;;;;5.65;100.00;100013.70;1495620;86;21428;-78
2024/03/01 03:05:33;;;;;;;56.90;34.80;;;;;;;5.65;100.00;100008.45;1507185;86;21464;-78
2024/03/01 03:07:59;;;;;;;56.63;33.93;;;;;;;5.66;100.00;100010.93;1504157;86;21368;-77
2024/03/01 03:10:26;;;;;;;58.63;35.20;;;;;;;5.65;100.00;100002.70;1499144;86;21501;-77
2024/03/01 03:12:52;;;;;;;58.47;34.37;;;;;;;5.65;100.00;100005.82;1515298;86;22321;-77
2024/03/01 03:15:18;;;;;;;58.40;35.23;;;;;;;5.66;100.00;100004.37;1493494;86;21406;-77
2024/03/01 03:17:44;;;;;;;52.50;33.47;;;;;;;5.67;100.00;99996.03;1506227;86;21361;-77
2024/03/01 03:20:11;;;;;;;59.47;34.87;;;;;;;5.67;100.00;99993.41;1511259;86;21451;-77
2024/03/01 03:22:40;;;;;;;60.57;33.87;;;;;;;5.66;100.00;99989.09;1505817;86;21589;-77
2024/03/01 03:25:08;;;;;;;55.17;30.83;;;;;;;5.70;100.00;99991.84;1502650;86;21457;-76
2024/03/01 03:27:34;;;;;;;53.67;31.10;;;;;;;5.70;100.00;99991.84;1505587;86;21331;-76
2024/03/01 03:30:00;;;;;;;52.20;31.53;;;;;;;5.73;100.00;99987.64;1503658;86;21579;-76
2024/03/01 03:32:26;;;;;;;49.30;30.83;;;;;;;5.74;100.00;99989.30;1509668;86;22381;-77
2024/03/01 03:34:53;;;;;;;52.50;31.33;;;;;;;5.75;100.00;99987.02;1501151;86;21412;-76
2024/03/01 03:37:20;;;;;;;58.50;33.20;;;;;;;5.70;100.00;99978.71;1506041;86;21449;-76
2024/03/01 03:39:47;;;;;;;52.57;32.93;;;;;;;5.68;100.00;99979.31;1503131;86;22350;-76
2024/03/01 03:42:13;;;;;;;55.67;31.70;;;;;;;5.67;100.00;99978.97;1504893;86;21510;-76
2024/03/01 03:44:39;;;;;;;56.37;33.03;;;;;;;5.66;100.00;99977.28;1512743;86;21442;-76
2024/03/01 03:47:06;;;;;;;52.70;32.93;;;;;;;5.64;100.00;99997.12;1507629;86;21545;-76
2024/03/01 03:49:32;;;;;;;50.90;29.00;;;;;;;5.64;100.00;100002.37;1505658;86;21427;-76
2024/03/01 03:51:58;;;;;;;56.70;33.13;;;;;;;5.66;100.00;100000.91;1504609;86;21449;-75
2024/03/01 03:54:25;;;;;;;54.27;32.83;;;;;;;5.70;100.00;100003.66;1498166;86;22395;-76
2024/03/01 03:56:53;;;;;;;68.10;33.73;;;;;;;5.75;100.00;100010.66;1505958;86;21382;-76
2024/03/01 03:59:19;;;;;;;56.87;33.53;;;;;;;5.75;100.00;100010.66;1500612;86;21516;-76
2024/03/01 04:01:45;;;;;;;63.67;34.70;;;;;;;5.76;100.00;100011.02;1511271;86;21531;-76
2024/03/01 04:04:11;;;;;;;53.17;31.70;;;;;;;5.77;100.00;100012.68;1501370;86;22429;-76
2024/03/01 04:06:37;;;;;;;65.83;32.83;;;;;;;5.77;100.00;100002.17;1508931;86;21521;-78
2024/03/01 04:09:03;;;;;;;64.33;35.47;;;;;;;5.80;100.00;100004.55;1509993;86;21476;-78
2024/03/01 04:11:30;;;;;;;56.90;34.00;;;;;;;5.83;100.00;99998.20;1511757;86;22563;-77
2024/03/01 04:13:56;;;;;;;51.23;31.97;;;;;;;5.78;100.00;99990.73;1493146;86;22453;-77
2024/03/01 04:16:24;;;;;;;58.60;32.83;;;;;;;5.77;100.00;99992.98;1514638;86;21470;-78
2024/03/01 04:18:50;;;;;;;59.67;35.67;;;;;;;5.78;100.00;99995.13;1501678;86;21492;-77
2024/03/01 04:21:16;;;;;;;59.13;30.50;;;;;;;5.77;100.00;99989.05;1506348;86;21484;-77
2024/03/01 04:23:44;;;;;;;60.67;35.00;;;;;;;5.77;100.00;99994.30;1499496;86;21425;-76
2024/03/01 04:26:10;;;;;;;64.20;36.07;;;;;;;5.76;100.00;99985.25;1513490;86;22284;-76
2024/03/01 04:28:40;;;;;;;62.67;36.03;;;;;;;5.80;100.00;99993.21;1502166;86;21393;-77
2024/03/01 04:31:06;;;;;;;69.37;33.43;;;;;;;5.85;100.00;99993.19;1498467;86;22489;-78
2024/03/01 04:33:36;;;;;;;61.33;33.83;;;;;;;5.87;100.00;99986.02;1507478;86;21499;-77
2024/03/01 04:36:02;;;;;;;60.67;36.20;;;;;;;5.89;100.00;99985.87;1509206;86;21469;-78
2024/03/01 04:38:29;;;;;;;60.57;37.07;;;;;;;5.88;100.00;99982.91;1507250;86;21418;-78
2024/03/01 04:40:55;;;;;;;57.83;34.37;;;;;;;5.85;100.00;99977.91;1513108;86;21433;-76
2024/03/01 04:43:21;;;;;;;61.83;36.00;;;;;;;5.83;100.00;99979.83;1507918;86;21492;-76
2024/03/01 04:45:47;;;;;;;66.33;38.60;;;;;;;5.78;100.00;99977.60;1514820;86;21440;-75
2024/03/01 04:48:13;;;;;;;59.07;37.17;;;;;;;5.78;100.00;99980.68;1514619;86;22245;-75
2024/03/01 04:50:40;;;;;;;61.53;36.97;;;;;;;5.78;100.00;99980.22;1509180;86;21418;-75
2024/03/01 04:53:07;;;;;;;62.03;39.10;;;;;;;5.78;100.00;99981.54;1509377;86;21447;-76
2024/03/01 04:55:33;;;;;;;61.90;40.80;;;;;;;5.82;100.00;99982.11;1506797;86;21499;-76
2024/03/01 04:57:59;;;;;;;75.57;40.77;;;;;;;5.88;100.00;99982.42;1512170;86;21469;-76
2024/03/01 05:00:25;;;;;;;82.87;42.90;;;;;;;5.92;100.00;99983.47;1504441;86;21603;-76
2024/03/01 05:02:53;;;;;;;71.27;43.03;;;;;;;5.99;100.00;99985.50;1511633;86;21628;-75
2024/03/01 05:05:22;;;;;;;64.53;40.30;;;;;;;6.00;100.00;99987.16;1506042;86;21647;-76
2024/03/01 05:07:48;;;;;;;66.93;39.00;;;;;;;6.01;100.00;99990.61;1509332;86;21595;-75
2024/03/01 05:10:21;;;;;;;64.00;40.23;;;;;;;6.00;100.00;99987.16;1500063;86;22387;-75
2024/03/01 05:12:44;;;;;;;66.50;38.50;;;;;;;6.01;100.00;99994.09;1502123;86;21521;-74
2024/03/01 05:15:12;;;;;;;62.17;37.23;;;;;;;6.06;100.00;99987.13;1509414;86;21462;-75
2024/03/01 05:17:41;;;;;;;60.67;36.10;;;;;;;6.09;100.00;99985.06;1514981;86;21455;-75
2024/03/01 05:20:14;;;;;;;59.27;38.07;;;;;;;6.14;100.00;99989.94;1504328;86;21410;-76
2024/03/01 05:22:43;;;;;;;62.43;37.70;;;;;;;6.16;100.00;99982.77;1503865;86;21617;-75
2024/03/01 05:25:16;;;;;;;73.17;38.10;;;;;;;6.18;100.00;99978.19;1503834;86;21689;-75
2024/03/01 05:27:46;;;;;;;61.73;38.20;;;;;;;6.18;100.00;99984.77;1504016;86;21529;-77
2024/03/01 05:30:16;;;;;;;60.80;37.33;;;;;;;6.17;100.00;99983.11;1513639;86;23044;-77
2024/03/01 05:32:43;;;;;;;59.10;36.07;;;;;;;6.17;100.00;99983.11;1510890;86;21498;-77
2024/03/01 05:35:10;;;;;;;61.33;38.93;;;;;;;6.16;100.00;99981.45;1499859;86;21617;-77
2024/03/01 05:37:36;;;;;;;62.07;37.77;;;;;;;6.13;100.00;99995.30;1499496;86;22376;-77
2024/03/01 05:40:05;;;;;;;63.07;38.27;;;;;;;6.13;100.00;99988.73;1500465;86;21953;-76
2024/03/01 05:42:32;;;;;;;61.17;37.00;;;;;;;6.13;100.00;99983.03;1506539;86;22076;-76
2024/03/01 05:44:58;;;;;;;68.03;38.63;;;;;;;6.13;100.00;99983.48;1508027;86;22298;-77
2024/03/01 05:47:25;;;;;;;55.43;35.77;;;;;;;6.14;100.00;99984.69;1501316;86;21455;-76
2024/03/01 05:49:51;;;;;;;62.13;37.73;;;;;;;6.17;100.00;99975.23;1500540;86;21454;-76
2024/03/01 05:52:17;;;;;;;65.37;38.63;;;;;;;6.20;100.00;99977.59;1505531;86;22335;-76
2024/03/01 05:54:43;;;;;;;68.80;39.53;;;;;;;6.23;100.00;99976.50;1506108;86;22540;-77
2024/03/01 05:57:10;;;;;;;71.23;43.00;;;;;;;6.27;100.00;99979.20;1515728;86;21469;-77
2024/03/01 05:59:36;;;;;;;75.87;41.67;;;;;;;6.29;100.00;99978.11;1511222;86;21477;-77
2024/03/01 06:02:04;;;;;;;74.30;45.10;;;;;;;6.31;100.00;99978.83;1516979;86;21425;-78
2024/03/01 06:04:30;;;;;;;77.63;43.90;;;;;;;6.41;100.00;99980.66;1484907;86;21587;-77
2024/03/01 06:06:57;;;;;;;80.07;42.10;;;;;;;6.47;100.00;99978.81;1485405;87;21396;-77
2024/03/01 06:09:23;;;;;;;73.70;43.47;;;;;;;6.53;100.00;99990.11;1487144;87;21454;-77
2024/03/01 06:11:49;;;;;;;69.73;41.53;;;;;;;6.59;100.00;99985.66;1490466;87;21499;-77
2024/03/01 06:14:15;;;;;;;82.77;44.13;;;;;;;6.66;100.00;99985.95;1489910;87;21514;-77
2024/03/01 06:16:41;;;;;;;80.73;44.17;;;;;;;6.71;100.00;99986.39;1478757;87;21455;-77
2024/03/01 06:19:07;;;;;;;77.03;45.60;;;;;;;6.76;100.00;99992.06;1486007;87;21469;-76
2024/03/01 06:21:33;;;;;;;84.10;46.50;;;;;;;6.80;100.00;99995.28;1482931;87;21618;-77
2024/03/01 06:23:59;;;;;;;72.20;43.47;;;;;;;6.87;100.00;99992.45;1489380;87;22254;-77
2024/03/01 06:26:25;;;;;;;81.70;45.13;;;;;;;6.88;100.00;99991.50;1485219;87;21485;-76
2024/03/01 06:28:51;;;;;;;79.30;45.93;;;;;;;6.87;100.00;99994.59;1482952;87;22387;-77
2024/03/01 06:31:17;;;;;;;75.80;44.90;;;;;;;6.91;100.00;99995.17;1485883;87;21500;-77
2024/03/01 06:33:43;;;;;;;79.10;45.13;;;;;;;6.96;100.00;99998.22;1485740;87;22269;-77
2024/03/01 06:36:10;;;;;;;80.23;46.97;;;;;;;7.02;100.00;99996.39;1485933;87;22475;-76
2024/03/01 06:38:38;;;;;;;79.53;43.97;;;;;;;7.09;100.00;100000.61;1487264;87;21456;-76
2024/03/01 06:41:05;;;;;;;81.73;46.13;;;;;;;7.16;100.00;100010.93;1484034;87;21425;-76
2024/03/01 06:43:32;;;;;;;80.27;46.57;;;;;;;7.23;100.00;100017.33;1480649;87;22824;-77
2024/03/01 06:45:58;;;;;;;80.50;48.80;;;;;;;7.32;100.00;100015.69;1490578;87;21537;-77
2024/03/01 06:48:24;;;;;;;85.17;48.40;;;;;;;7.36;100.00;100001.27;1487299;87;21389;-77
2024/03/01 06:50:50;;;;;;;82.27;48.57;;;;;;;7.39;100.00;100003.16;1484831;87;21418;-76
2024/03/01 06:53:16;;;;;;;81.07;47.70;;;;;;;7.45;100.00;100003.06;1464106;87;21381;-77
2024/03/01 06:55:42;;;;;;;89.10;49.00;;;;;;;7.48;100.00;99997.55;1482865;87;21549;-77
2024/03/01 06:58:08;;;;;;;93.13;47.80;;;;;;;7.53;100.00;100003.70;1477205;87;22343;-77
2024/03/01 07:00:34;;;;;;;82.77;47.03;;;;;;;7.60;100.00;100016.68;1482867;87;21455;-77
2024/03/01 07:03:02;;;;;;;82.60;45.53;;;;;;;7.68;100.00;100021.60;1466923;87;21434;-77
2024/03/01 07:05:30;;;;;;;82.03;46.13;;;;;;;7.76;100.00;100007.71;1482072;86;21639;-77
2024/03/01 07:07:57;;;;;;;85.63;47.93;;;;;;;7.81;100.00;99998.09;1490207;87;21441;-76
2024/03/01 07:10:23;;;;;;;86.60;48.47;;;;;;;7.88;100.00;99996.53;1488415;87;21559;-77
2024/03/01 07:12:49;;;;;;;94.57;51.63;;;;;;;7.92;100.00;100000.57;1490687;87;22239;-77
2024/03/01 07:15:16;;;;;;;81.07;49.67;;;;;;;7.98;100.00;100007.91;1485517;87;21433;-77
2024/03/01 07:17:42;;;;;;;95.23;52.87;;;;;;;8.07;100.00;100015.45;1489879;87;21419;-77
2024/03/01 07:20:08;;;;;;;85.77;51.03;;;;;;;8.11;100.00;100020.77;1484043;87;21462;-77
2024/03/01 07:22:35;;;;;;;87.57;50.63;;;;;;;8.13;100.00;100018.34;1489407;87;22363;-78
2024/03/01 07:25:03;;;;;;;86.17;50.63;;;;;;;8.14;100.00;100014.76;1488154;87;21589;-77
2024/03/01 07:27:29;;;;;;;96.73;52.40;;;;;;;8.13;100.00;99998.58;1477935;87;21478;-76
2024/03/01 07:29:55;;;;;;;90.07;50.23;;;;;;;8.13;100.00;99991.98;1487742;87;21656;-77
2024/03/01 07:32:21;;;;;;;87.80;51.00;;;;;;;8.20;100.00;99999.32;1486561;87;21411;-77
2024/03/01 07:34:47;;;;;;;84.87;49.83;;;;;;;8.25;100.00;100003.69;1481182;87;21456;-77
2024/03/01 07:37:13;;;;;;;84.47;49.50;;;;;;;8.32;100.00;100010.89;1490503;87;21404;-77
2024/03/01 07:39:39;;;;;;;88.10;50.57;;;;;;;8.36;100.00;100021.48;1486905;87;21529;-77
2024/03/01 07:42:06;;;;;;;86.00;47.63;;;;;;;8.38;100.00;100021.36;1479237;87;22123;-78
2024/03/01 07:44:34;;;;;;;90.30;49.80;;;;;;;8.42;100.00;100014.84;1483263;87;21484;-77
2024/03/01 07:47:02;;;;;;;78.90;49.53;;;;;;;8.51;100.00;100021.88;1486644;87;21412;-76
2024/03/01 07:49:29;;;;;;;86.77;52.40;;;;;;;8.61;100.00;100020.55;1496686;87;21463;-77
2024/03/01 07:51:56;;;;;;;100.80;51.80;;;;;;;8.65;100.00;100021.08;1488485;87;21440;-76
2024/03/01 07:54:22;;;;;;;82.47;50.87;;;;;;;8.61;100.00;100015.77;1482575;87;22167;-76
2024/03/01 07:56:48;;;;;;;110.27;62.77;;;;;;;8.53;100.00;100004.11;1483112;87;22490;-76
2024/03/01 07:59:14;;;;;;;154.83;85.23;;;;;;;8.53;100.00;100001.48;1472602;87;21505;-78
2024/03/01 08:01:40;;;;;;;166.30;92.57;;;;;;;8.58;100.00;100003.20;1486733;87;21737;-77
2024/03/01 08:04:06;;;;;;;150.50;85.83;;;;;;;8.68;100.00;100017.66;1487789;86;21551;-77
2024/03/01 08:06:32;;;;;;;161.83;84.37;;;;;;;8.81;100.00;100023.94;1506488;86;21544;-77
2024/03/01 08:08:59;;;;;;;134.40;76.67;;;;;;;8.92;100.00;100010.55;1508816;86;22402;-77
2024/03/01 08:11:43;;;;;;;111.70;64.87;;;;;;;9.01;100.00;100009.66;1508873;86;21454;-78
2024/03/01 08:14:32;;;;;;;98.77;56.33;;;;;;;9.07;100.00;100009.56;1503048;86;22482;-77
2024/03/01 08:16:58;;;;;;;99.50;58.33;;;;;;;9.05;100.00;100008.87;1505257;86;22313;-77
2024/03/01 08:19:41;;;;;;;89.53;54.27;;;;;;;9.10;100.00;100018.50;1511151;86;21440;-77
2024/03/01 08:22:13;;;;;;;88.90;53.50;;;;;;;9.14;100.00;100017.22;1507915;86;21521;-76
2024/03/01 08:24:48;;;;;;;81.63;51.27;;;;;;;9.09;100.00;100011.57;1429799;86;22580;-73
2024/03/01 08:27:25;;;;;;;90.80;52.77;;;;;;;9.13;100.00;100010.78;1588348;86;21367;-74
2024/03/01 08:29:52;;;;;;;92.57;51.90;;;;;;;9.21;100.00;100014.83;1425619;86;21374;-72
2024/03/01 08:32:29;;;;;;;89.87;53.03;;;;;;;9.33;100.00;100014.95;1426540;86;21542;-73
2024/03/01 08:34:57;;;;;;;92.87;52.33;;;;;;;9.46;100.00;100000.86;1585296;86;21396;-72
2024/03/01 08:37:30;;;;;;;101.60;53.00;;;;;;;9.60;100.00;100007.44;1424428;86;21330;-74
2024/03/01 08:39:56;;;;;;;82.83;50.37;;;;;;;9.78;100.00;100012.73;1429486;86;21389;-72
2024/03/01 08:42:24;;;;;;;92.37;52.07;;;;;;;9.95;100.00;100007.06;1426390;86;21485;-74
2024/03/01 08:44:55;;;;;;;89.87;49.03;;;;;;;10.06;100.00;100000.70;1425361;86;22202;-74
2024/03/01 08:47:35;;;;;;;98.50;56.13;;;;;;;10.17;100.00;99997.80;1594711;86;22247;-75
2024/03/01 08:50:37;;;;;;;83.95;49.38;;;;;;;10.29;100.00;99988.65;1594813;86;21537;-75
2024/03/01 08:53:25;;;;;;;82.63;45.00;;;;;;;10.43;100.00;99987.74;1588489;86;22298;-76
2024/03/01 08:55:52;;;;;;;87.30;47.50;;;;;;;10.58;100.00;99991.45;1428238;86;21360;-74
2024/03/01 08:58:21;;;;;;;82.37;49.77;;;;;;;10.75;100.00;100006.91;1427334;86;21322;-75
2024/03/01 09:00:50;;;;;;;81.43;48.43;;;;;;;10.84;100.00;99999.33;1423076;86;21381;-76
2024/03/01 09:03:23;;;;;;;73.33;44.10;;;;;;;10.90;100.00;100003.16;1424339;86;21367;-75
2024/03/01 09:05:47;;;;;;;75.57;41.00;;;;;;;10.97;100.00;100001.55;1559834;86;21390;-74
2024/03/01 09:08:22;;;;;;;69.87;40.90;;;;;;;11.05;100.00;99994.95;1487121;86;21477;-75
2024/03/01 09:10:54;;;;;;;71.53;41.83;;;;;;;11.13;100.00;99999.42;1511111;86;21604;-75
2024/03/01 09:13:22;;;;;;;73.23;43.87;;;;;;;11.18;100.00;99991.83;1497474;86;22372;-75
2024/03/01 09:15:50;;;;;;;69.47;39.93;;;;;;;11.22;100.00;99994.48;1482795;86;21432;-77
2024/03/01 09:18:43;;;;;;;74.07;41.40;;;;;;;11.24;100.00;100006.57;1513293;86;21513;-76
2024/03/01 09:21:27;;;;;;;69.13;40.97;;;;;;;11.24;100.00;100006.57;1503297;86;21618;-77
2024/03/01 09:23:53;;;;;;;60.13;37.43;;;;;;;11.24;100.00;100001.78;1505028;86;21499;-77
2024/03/01 09:26:19;;;;;;;60.33;36.57;;;;;;;11.22;100.00;100001.95;1506354;86;21521;-78
2024/03/01 09:28:45;;;;;;;60.07;36.67;;;;;;;11.24;100.00;99997.30;1512925;86;21544;-78
2024/03/01 09:31:12;;;;;;;58.47;34.33;;;;;;;11.26;100.00;99994.00;1510960;86;21594;-78
2024/03/01 09:33:38;;;;;;;59.50;34.70;;;;;;;11.29;100.00;99998.98;1516777;86;21567;-77
2024/03/01 09:36:05;;;;;;;65.87;34.97;;;;;;;11.36;100.00;99998.31;1505963;86;21462;-78
2024/03/01 09:38:31;;;;;;;67.97;36.90;;;;;;;11.43;100.00;99998.02;1508868;85;21569;-77
2024/03/01 09:41:49;;;;;;;58.10;33.27;;;;;;;11.46;100.00;99993.71;1508785;86;21618;-77
2024/03/01 09:44:35;;;;;;;59.50;34.13;;;;;;;11.52;100.00;99993.05;1464299;86;21507;-77
2024/03/01 09:47:34;;;;;;;60.03;37.17;;;;;;;11.59;100.00;99988.73;1503429;86;21765;-77
2024/03/01 09:50:17;;;;;;;57.97;34.97;;;;;;;11.68;100.00;99982.47;1503642;86;21624;-77
2024/03/01 09:53:08;;;;;;;59.90;31.60;;;;;;;11.83;100.00;99973.85;1513615;86;21455;-75
2024/03/01 09:55:42;;;;;;;62.35;36.55;;;;;;;12.09;100.00;99971.86;1486048;86;21461;-75
2024/03/01 09:58:17;;;;;;;62.20;40.23;;;;;;;12.38;100.00;99977.10;1506791;86;22400;-75
2024/03/01 10:01:01;;;;;;;72.47;46.37;;;;;;;12.60;100.00;99980.35;1510090;86;21562;-74
2024/03/01 10:03:48;;;;;;;80.10;55.13;;;;;;;12.79;100.00;99984.91;1507402;86;21432;-75
2024/03/01 10:06:57;;;;;;;76.67;48.60;;;;;;;12.94;100.00;99982.34;1507212;86;22400;-75
2024/03/01 10:09:56;;;;;;;64.03;40.93;;;;;;;13.06;100.00;99981.80;1513208;86;21447;-75
2024/03/01 10:12:49;;;;;;;62.20;30.87;;;;;;;13.15;100.00;99976.41;1496056;86;21536;-75
2024/03/01 10:15:27;;;;;;;54.13;34.03;;;;;;;13.07;100.00;99968.84;1508194;86;21485;-75
2024/03/01 10:18:14;;;;;;;52.30;32.57;;;;;;;13.08;100.00;99971.80;1519399;86;21477;-75
2024/03/01 10:20:49;;;;;;;46.93;30.20;;;;;;;13.14;100.00;99970.78;1502857;86;21543;-76
2024/03/01 10:23:45;;;;;;;46.80;27.37;;;;;;;13.19;100.00;99965.27;1507414;86;21616;-76
2024/03/01 10:26:16;;;;;;;54.77;30.93;;;;;;;13.07;100.00;99959.53;1509816;86;21418;-76
2024/03/01 10:29:09;;;;;;;54.70;31.33;;;;;;;13.06;100.00;99963.20;1505526;86;21514;-76
2024/03/01 10:32:03;;;;;;;54.97;31.33;;;;;;;13.08;100.00;99969.15;1504794;86;21425;-76
2024/03/01 10:34:54;;;;;;;44.97;29.17;;;;;;;13.12;100.00;99968.80;1498997;86;22140;-76
2024/03/01 10:37:44;;;;;;;51.20;30.30;;;;;;;13.10;100.00;99967.66;1514416;86;21960;-76
2024/03/01 10:40:17;;;;;;;52.25;32.20;;;;;;;13.07;100.00;99962.19;1504860;86;21374;-76
2024/03/01 10:43:11;;;;;;;44.97;29.43;;;;;;;13.13;100.00;99965.16;1508764;86;21447;-77
2024/03/01 10:46:00;;;;;;;53.17;31.33;;;;;;;13.18;100.00;99965.47;1501109;86;21506;-76
2024/03/01 10:48:32;;;;;;;50.70;31.57;;;;;;;13.25;100.00;99966.40;1505822;86;21448;-76
2024/03/01 10:51:02;;;;;;;55.93;33.43;;;;;;;13.30;100.00;99972.05;1504027;86;21485;-76
2024/03/01 10:53:37;;;;;;;61.13;35.68;;;;;;;13.33;100.00;99978.34;1508092;86;21588;-76
2024/03/01 10:56:09;;;;;;;69.73;39.63;;;;;;;13.26;100.00;99979.56;1504809;86;21455;-76
2024/03/01 10:58:40;;;;;;;54.47;33.30;;;;;;;13.24;100.00;99982.85;1505296;86;21402;-77
2024/03/01 11:01:40;;;;;;;43.20;27.13;;;;;;;13.16;100.00;99982.90;1502174;86;22475;-76
2024/03/01 11:04:24;;;;;;;64.20;35.93;;;;;;;13.09;100.00;99982.78;1455053;86;21599;-76
2024/03/01 11:07:08;;;;;;;97.10;45.33;;;;;;;13.07;100.00;99978.13;1497187;86;21649;-76
2024/03/01 11:09:39;;;;;;;66.93;36.97;;;;;;;13.07;100.00;99966.18;1499151;86;21457;-76
2024/03/01 11:12:36;;;;;;;67.05;35.95;;;;;;;13.08;100.00;99969.15;1502393;86;21383;-76
2024/03/01 11:15:11;;;;;;;51.17;30.33;;;;;;;13.11;100.00;99961.33;1508964;86;22573;-76
2024/03/01 11:17:41;;;;;;;56.87;27.97;;;;;;;13.14;100.00;99962.81;1499423;86;21628;-77
2024/03/01 11:20:13;;;;;;;64.92;33.08;;;;;;;13.18;100.00;99968.95;1511451;86;22144;-77
2024/03/01 11:22:54;;;;;;;52.63;32.10;;;;;;;13.19;100.00;99965.27;1500465;86;21589;-75
2024/03/01 11:25:22;;;;;;;;;;;;;;;13.23;100.00;99963.08;1506464;86;21531;-77